South Easton, Massachusetts
Current Conditions -  °F | °C
As of 10:53 PM on Saturday 25 Oct 2014 (Local Time) from KOWD Reporting Station
Scattered Clouds Scattered Clouds  
Wind Chill: 52°   Ceiling: Unl
Heat Index: 52°   Visibility: 10mi
Dew Point: 45°   Wind: 5mph
Humidity: 77%   Direction: 140°SE
Pressure: 29.53"   Gusts: NA
Location:  42.05°N, 71.08°W
Report Text: KOWD 260253Z AUTO 14004KT 10SM SCT070 11/07 A2953 RMK AO2 SLP998 T01110072 58019
Loading
Personal Weather Stations






























Interactive Weather Map
Tropical Storm Tracking
New forecast layout! Learn more

10-Day Weather Forecast

Advertisements
Track Severe Weather on mobile